Aktualne dane pomiarowe

Uwaga, wersja testowa! Automatyczne pobieranie danych za pomocą narzędzi lub skryptów to umożliwiających jest zabronione.

Dane meteo z obszaru Polski uzyskane na podstawie depesz SYNOP pobieranych co godzinę z NWS. Najedź myszką na symbol przedstawiony w tabeli, aby uzyskać informacje co do jego znaczenia. Prosimy pamiętać, że to testowa wersja strony, która jeszcze nie jest ukończona. Stworzono również jest krótki FAQ dotyczący korzystania z tej podstrony Anomalie temperatury w chwili obecnej odniesione są do okresu referencyjnego 1951-2016. Okres ten będzie później zmieniony na 1981-2010. Kliknij ikonę aby pobrać plik CSV. Kliknij ikonę aby wygenerować mapę synoptyczną dla danego terminu.

Wybierz Datę:    

        

Częstochowa (12550)

Dane terminowe dla wybranej stacji. Kliknij datę, aby otrzymać dane z tego terminu dla wszystkich stacji.

TemperaturaZachmurzenieWiatrCiśnienieOpadyPogoda
 Data t td wb tx tn tg rh  Nt Nl Cl Cm Ch ws wd g1 g2 wx mslp ppp ch 24h 12h t ww ww w1 w2  
2019-07-04 23:00:00 13.1 4.5 8.4--- 5629.0--1wx--11017.9 982.6 -0.9---------
2019-07-04 22:00:00 14.4 4.7 9.1--- 5235.0--1wx--11018.2 983.1 -0.5---------
2019-07-04 21:00:00 15.2 3.3 9.0--- 4535.0--1wx--11018.3 983.3 -0.6---------
2019-07-04 20:00:00 16.5 4.2 10.0--- 4426.0--1wx--11018.4 983.5 -0.7---------
2019-07-04 19:00:00 17.7 2.4 9.9--- 3645.0--1wx--11018.3 983.6 -0.9---------
2019-07-04 18:00:00 19.7 2.1 10.7 22.3 15.3- 3150.0--1wx-911018.4 983.9 -1.0- 0.012------
2019-07-04 17:00:00 20.6 1.9 11.1--- 2950.0--2wx-921018.6 984.2 -1.1---------
2019-07-04 16:00:00 21.6 2.8 11.9--- 2930.0--3wx---1018.8 984.5 -1.1---------
2019-07-04 15:00:00 21.9 2.6 11.9--- 2840.0--3wx8931019.2 984.9 -1.3---------
2019-07-04 14:00:00 21.8 3.0 12.0--- 2930.0--3wx8931019.6 985.3 -1.3---------
2019-07-04 13:00:00 21.6 3.7 12.2--- 3130.0--3wx-731019.9 985.6 -1.3---------
2019-07-04 12:00:00 21.6 4.2 12.4--- 3240.0--3wx-931020.6 986.2 -0.9- 0.06------
2019-07-04 11:00:00 21.0 3.7 11.9--- 3230.0--3wx--31021.0 986.6 -0.6---------
2019-07-04 10:00:00 19.9 3.6 11.4--- 3430.0--3wx-931021.5 986.9 -0.4---------
2019-07-04 09:00:00 19.1 4.1 11.2--- 3740.0--4wx-741021.8 987.1 0.0---------
2019-07-04 08:00:00 17.8 4.7 10.8--- 4230.0--2wx--21022.0 987.2 0.3---------
2019-07-04 07:00:00 17.4 5.3 10.8--- 4540.0--2wx---1022.2 987.3 0.4---------
2019-07-04 06:00:00 15.5 6.5 10.4 18.5 9.1 8 5529.0--1wx--11022.2 987.1 0.3- 0.012----- 13.0
2019-07-04 05:00:00 12.4 6.2 8.8--- 6627.0--1wx--11022.4 986.9 0.2---------
2019-07-04 04:00:00 9.9 5.9 7.5--- 7630.0--1wx--11022.7 986.9 0.3---------
2019-07-04 03:00:00 9.2 5.2 6.8--- 7640.0--1wx--11022.7 986.8 0.2---------
2019-07-04 02:00:00 10.0 5.2 7.2--- 7240.0--1wx--11022.5 986.7 0.1---------
2019-07-04 01:00:00 11.1 5.0 7.6--- 6640.0--1wx--11022.3 986.6 0.1---------
2019-07-04 00:00:00 12.0 4.7 7.9--- 6140.0--1wx--11022.1 986.6 0.2- 0.06------
2019-07-03 23:00:00 13.1 4.3 8.3--- 5540.0--1wx--11022.0 986.6 0.4---------
2019-07-03 22:00:00 14.3 3.7 8.7--- 4950.0--1wx--11021.8 986.5 1.0---------
2019-07-03 21:00:00 15.8 2.6 9.0--- 4150.0--2wx--21021.5 986.4 1.2---------
2019-07-03 20:00:00 16.0 2.7 9.2--- 4150.0--2wx--21021.2 986.2 0.9---------
2019-07-03 19:00:00 16.3 2.7 9.3--- 4045.0--2wx--21020.5 985.5 0.3---------
2019-07-03 18:00:00 18.4 1.8 10.0 21.2 16.0- 3350.0--2wx-1021019.9 985.2 0.1- 0.012------
2019-07-03 17:00:00 18.8 1.3 10.1--- 3140.0--2wx--21020.0 985.3 -0.3---------
2019-07-03 16:00:00 19.9 0.8 10.4--- 2835.0--5wx-851019.7 985.2 -0.4---------
2019-07-03 15:00:00 20.6 1.4 10.9--- 2830.0--5wx-1051019.5 985.1 -0.7---------
2019-07-03 14:00:00 20.5 0.8 10.7--- 2735.0--4wx9941020.1 985.6 -0.3---------
2019-07-03 13:00:00 20.6 1.4 10.9--- 2830.0--4wx81041020.1 985.6 -0.2---------
2019-07-03 12:00:00 20.1 2.4 11.0--- 3123.0--5wx10--1020.3 985.8 -0.1---------
2019-07-03 11:00:00 19.2 3.4 11.0--- 3525.0--4wx101041020.5 985.9 0.1---------
2019-07-03 10:00:00 18.7 4.5 11.1--- 3930.0--3wx81031020.5 985.8 0.2---------
2019-07-03 09:00:00 17.2 4.5 10.4--- 4340.0--5wx10--1020.8 985.9 0.6---------
2019-07-03 08:00:00 16.9 4.6 10.3--- 4430.0--2wx--21020.7 985.8 0.7---------
2019-07-03 07:00:00 16.8 5.1 10.5--- 4629.0--3wx--31020.5 985.6 0.8---------
2019-07-03 06:00:00 16.0 5.6 10.3 21.1 10.4 9 5045.0--3wx--31020.3 985.3 0.5- 0.012----- 10.7
2019-07-03 05:00:00 14.6 6.2 9.8--- 5735.0--2wx--21020.3 985.1 0.6---------
2019-07-03 04:00:00 11.6 6.9 8.7--- 7330.0--1wx--11020.3 984.8 0.4---------
2019-07-03 03:00:00 10.6 6.9 8.3--- 7840.0--1wx--11020.5 984.8 0.6---------
2019-07-03 02:00:00 11.6 6.9 8.7--- 7340.0--1wx--11020.0 984.5 0.8---------
2019-07-03 01:00:00 13.3 6.9 9.5--- 6545.0--3wx--31019.7 984.4 0.9---------
2019-07-03 00:00:00 14.4 7.4 10.3--- 6345.0--3wx--31019.4 984.2 1.0- 0.06------
3.2 ms

 

Print Friendly, PDF & Email